createdAt,value
2022-12-20T10:32:59.234Z,1011.43
2022-12-20T10:34:05.096Z,1011.39
2022-12-20T10:35:08.483Z,1011.34
2022-12-20T10:36:12.672Z,1011.31
2022-12-20T10:37:41.359Z,1011.32
2022-12-20T10:39:02.274Z,1011.33
2022-12-20T10:40:07.826Z,1011.37
2022-12-20T10:45:35.877Z,1011.32
2022-12-20T10:48:13.488Z,1011.26
2022-12-20T10:49:28.575Z,1011.25
2022-12-20T10:56:24.414Z,1011.14
2022-12-20T10:58:57.091Z,1011.07
2022-12-20T11:00:00.470Z,1011.10
2022-12-20T11:01:04.542Z,1011.12
2022-12-20T11:02:08.872Z,1011.13
2022-12-20T11:03:13.267Z,1011.12
2022-12-20T11:04:17.420Z,1011.08
2022-12-20T11:05:21.442Z,1011.08
2022-12-20T11:06:25.731Z,1011.05
2022-12-20T11:07:29.986Z,1010.97
2022-12-20T11:08:40.911Z,1010.97
2022-12-20T11:09:38.470Z,1010.96
2022-12-20T11:10:42.734Z,1010.92
2022-12-20T11:13:13.530Z,1010.91
2022-12-20T11:14:17.691Z,1010.86
2022-12-20T11:15:34.030Z,1010.86
2022-12-20T11:16:26.717Z,1010.85
2022-12-20T11:17:30.845Z,1010.85
2022-12-20T11:18:35.106Z,1010.88
2022-12-20T11:19:39.309Z,1010.92
2022-12-20T11:20:43.587Z,1010.89
2022-12-20T11:21:47.844Z,1010.80
2022-12-20T11:22:52.206Z,1010.80
2022-12-20T11:23:56.455Z,1010.76
2022-12-20T11:25:00.700Z,1010.70
2022-12-20T11:26:05.054Z,1010.74
2022-12-20T11:27:15.124Z,1010.74
2022-12-20T11:28:13.527Z,1010.67
2022-12-20T11:29:17.692Z,1010.73
2022-12-20T11:30:22.902Z,1010.69
2022-12-20T11:31:26.818Z,1010.68
2022-12-20T11:32:30.970Z,1010.64
2022-12-20T11:33:36.255Z,1010.57
2022-12-20T11:34:40.113Z,1010.52
2022-12-20T11:35:44.395Z,1010.50
2022-12-20T11:36:48.573Z,1010.50
2022-12-20T11:37:52.850Z,1010.49
2022-12-20T11:38:58.124Z,1010.47
2022-12-20T11:40:01.892Z,1010.46
2022-12-20T11:41:07.026Z,1010.44
2022-12-20T11:42:10.952Z,1010.41
2022-12-20T11:43:15.108Z,1010.41
2022-12-20T11:44:27.588Z,1010.37
2022-12-20T11:45:24.165Z,1010.41
2022-12-20T11:46:27.935Z,1010.42
2022-12-20T11:47:32.173Z,1010.41
2022-12-20T11:48:36.361Z,1010.38
2022-12-20T11:49:40.726Z,1010.35
2022-12-20T11:50:45.012Z,1010.31
2022-12-20T11:51:49.276Z,1010.25
2022-12-20T11:52:53.391Z,1010.26
2022-12-20T11:53:58.645Z,1010.26
2022-12-20T11:55:02.514Z,1010.33
2022-12-20T11:56:06.680Z,1010.36
2022-12-20T11:57:10.988Z,1010.32
2022-12-20T11:58:19.737Z,1010.25
2022-12-20T11:59:19.514Z,1010.22
2022-12-20T12:00:23.831Z,1010.22
2022-12-20T12:01:27.995Z,1010.28
2022-12-20T12:02:32.383Z,1010.33
2022-12-20T12:03:36.393Z,1010.37
2022-12-20T12:04:40.664Z,1010.31
2022-12-20T12:05:44.988Z,1010.28
2022-12-20T12:06:49.151Z,1010.22
2022-12-20T12:07:53.459Z,1010.20
2022-12-20T12:08:57.633Z,1010.24
2022-12-20T12:10:01.928Z,1010.25
2022-12-20T12:11:06.170Z,1010.23
2022-12-20T12:12:10.423Z,1010.20
2022-12-20T12:13:15.561Z,1010.17
2022-12-20T12:14:19.495Z,1010.18
2022-12-20T12:15:23.740Z,1010.21
2022-12-20T12:16:29.135Z,1010.20
2022-12-20T12:17:32.869Z,1010.16
2022-12-20T12:18:37.149Z,1010.13
2022-12-20T12:19:41.377Z,1010.09
2022-12-20T12:21:03.533Z,1010.06
2022-12-20T12:22:11.663Z,1010.02
2022-12-20T12:23:30.293Z,1010.06
2022-12-20T12:24:39.426Z,1010.08
2022-12-20T12:25:45.237Z,1010.04
2022-12-20T12:26:54.685Z,1010.00
2022-12-20T12:29:24.654Z,1009.98
2022-12-20T12:30:28.757Z,1010.00
2022-12-20T12:31:33.033Z,1010.05
2022-12-20T12:32:37.212Z,1009.97
2022-12-20T12:33:41.383Z,1009.96
2022-12-20T12:34:45.640Z,1009.90
2022-12-20T12:35:49.848Z,1009.92
2022-12-20T12:36:54.079Z,1009.93
2022-12-20T12:37:58.264Z,1010.00
2022-12-20T12:39:02.894Z,1009.97
2022-12-20T12:40:06.665Z,1009.91
2022-12-20T12:41:10.894Z,1009.87
2022-12-20T12:42:15.048Z,1009.83
2022-12-20T12:43:19.348Z,1009.82
2022-12-20T12:44:23.612Z,1009.79
2022-12-20T12:45:27.926Z,1009.78
2022-12-20T12:46:32.236Z,1009.82
2022-12-20T12:47:36.347Z,1009.79
2022-12-20T12:48:40.644Z,1009.76
2022-12-20T12:49:44.865Z,1009.72
2022-12-20T12:50:49.022Z,1009.73
2022-12-20T12:51:53.256Z,1009.72
2022-12-20T12:52:57.548Z,1009.75
2022-12-20T12:54:04.909Z,1009.74
2022-12-20T12:55:08.260Z,1009.77
2022-12-20T12:56:41.598Z,1009.82
2022-12-20T12:57:16.590Z,1009.81
2022-12-20T12:58:20.897Z,1009.81
2022-12-20T12:59:25.154Z,1009.77
2022-12-20T13:00:29.332Z,1009.76
2022-12-20T13:01:33.672Z,1009.75
2022-12-20T13:02:37.954Z,1009.75
2022-12-20T13:03:42.002Z,1009.76
2022-12-20T13:04:46.260Z,1009.75
2022-12-20T13:05:50.437Z,1009.76
2022-12-20T13:06:54.748Z,1009.74
2022-12-20T13:07:59.049Z,1009.76
2022-12-20T13:09:03.459Z,1009.76
2022-12-20T13:10:10.613Z,1009.78
2022-12-20T13:11:13.974Z,1009.74
2022-12-20T13:12:18.118Z,1009.68
2022-12-20T13:13:22.308Z,1009.64
2022-12-20T13:14:26.592Z,1009.70
2022-12-20T13:15:30.853Z,1009.74
2022-12-20T13:17:09.964Z,1009.73
2022-12-20T13:17:39.340Z,1009.66
2022-12-20T13:18:46.527Z,1009.63
2022-12-20T13:19:49.760Z,1009.66
2022-12-20T13:20:54.039Z,1009.67
2022-12-20T13:21:58.209Z,1009.66
2022-12-20T13:23:02.406Z,1009.68
2022-12-20T13:24:06.711Z,1009.69
2022-12-20T13:25:10.937Z,1009.69
2022-12-20T13:26:15.186Z,1009.66
2022-12-20T13:27:19.478Z,1009.67
2022-12-20T13:28:23.566Z,1009.63
2022-12-20T13:29:28.829Z,1009.61
2022-12-20T13:30:32.740Z,1009.63
2022-12-20T13:31:36.932Z,1009.65
2022-12-20T13:32:41.170Z,1009.65
2022-12-20T13:33:45.413Z,1009.73
2022-12-20T13:34:49.570Z,1009.74
2022-12-20T13:35:53.770Z,1009.74
2022-12-20T13:36:58.054Z,1009.77
2022-12-20T13:38:02.205Z,1009.75
2022-12-20T13:39:06.503Z,1009.73
2022-12-20T13:40:10.755Z,1009.76
2022-12-20T13:41:14.790Z,1009.76
2022-12-20T13:42:19.143Z,1009.76
2022-12-20T13:43:23.354Z,1009.76
2022-12-20T13:44:27.564Z,1009.74
2022-12-20T13:45:31.906Z,1009.70
2022-12-20T13:46:36.063Z,1009.63
2022-12-20T13:47:40.324Z,1009.62
2022-12-20T13:48:44.543Z,1009.63
2022-12-20T13:49:48.777Z,1009.63
2022-12-20T13:50:53.053Z,1009.68
2022-12-20T13:51:57.251Z,1009.71
2022-12-20T13:53:01.490Z,1009.67
2022-12-20T13:54:05.713Z,1009.58
2022-12-20T13:55:09.861Z,1009.56
2022-12-20T13:56:14.154Z,1009.57
2022-12-20T13:57:18.401Z,1009.59
2022-12-20T13:58:22.652Z,1009.63
2022-12-20T13:59:26.797Z,1009.58
2022-12-20T14:00:31.072Z,1009.56
2022-12-20T14:01:35.467Z,1009.54
2022-12-20T14:02:39.654Z,1009.54
2022-12-20T14:03:43.862Z,1009.53
2022-12-20T14:04:47.955Z,1009.51
2022-12-20T14:05:52.078Z,1009.54
2022-12-20T14:06:56.456Z,1009.54
2022-12-20T14:08:00.620Z,1009.56
2022-12-20T14:09:04.955Z,1009.52
2022-12-20T14:10:09.177Z,1009.52
2022-12-20T14:11:13.339Z,1009.50
2022-12-20T14:12:23.443Z,1009.49
2022-12-20T14:13:21.844Z,1009.45
2022-12-20T14:14:26.084Z,1009.48
2022-12-20T14:15:30.413Z,1009.48
2022-12-20T14:18:01.788Z,1009.45
2022-12-20T14:19:06.021Z,1009.46
2022-12-20T14:20:10.268Z,1009.51
2022-12-20T14:21:14.423Z,1009.48
2022-12-20T14:22:21.767Z,1009.46
2022-12-20T14:23:25.056Z,1009.44
2022-12-20T14:24:29.243Z,1009.43
2022-12-20T14:25:33.475Z,1009.42
2022-12-20T14:26:37.580Z,1009.41
2022-12-20T14:27:41.890Z,1009.39
2022-12-20T14:28:46.047Z,1009.38
2022-12-20T14:29:50.301Z,1009.37
2022-12-20T14:30:54.692Z,1009.36
2022-12-20T14:31:58.725Z,1009.32
2022-12-20T14:33:02.979Z,1009.30
2022-12-20T14:34:07.230Z,1009.25
2022-12-20T14:35:11.537Z,1009.22
2022-12-20T14:36:15.832Z,1009.22
2022-12-20T14:37:20.126Z,1009.20
2022-12-20T14:38:24.338Z,1009.20
2022-12-20T14:39:28.478Z,1009.17
2022-12-20T14:40:32.799Z,1009.21
2022-12-20T14:41:37.044Z,1009.17
2022-12-20T14:42:41.254Z,1009.17
2022-12-20T14:43:45.381Z,1009.18
2022-12-20T14:44:49.606Z,1009.12
2022-12-20T14:45:53.977Z,1009.09
2022-12-20T14:46:58.295Z,1009.14
2022-12-20T14:48:02.364Z,1009.14
2022-12-20T14:49:06.667Z,1009.14
2022-12-20T14:50:10.875Z,1009.13
2022-12-20T14:51:15.041Z,1009.13
2022-12-20T14:52:19.332Z,1009.12
2022-12-20T14:53:23.576Z,1009.10
2022-12-20T14:55:05.631Z,1009.11
2022-12-20T14:55:35.106Z,1009.10
2022-12-20T14:56:38.359Z,1009.09
2022-12-20T14:57:42.620Z,1009.08
2022-12-20T14:58:46.850Z,1009.08
2022-12-20T14:59:51.096Z,1009.09
2022-12-20T15:00:55.243Z,1009.08
2022-12-20T15:01:59.504Z,1009.06
2022-12-20T15:03:03.880Z,1009.02
2022-12-20T15:04:07.911Z,1008.99
2022-12-20T15:05:12.083Z,1009.00
2022-12-20T15:06:16.355Z,1008.99
2022-12-20T15:07:25.968Z,1008.95
2022-12-20T15:08:24.825Z,1008.93
2022-12-20T15:09:28.961Z,1008.89
2022-12-20T15:10:33.248Z,1008.88
2022-12-20T15:11:37.495Z,1008.88
2022-12-20T15:12:42.507Z,1008.91
2022-12-20T15:13:45.807Z,1008.93
2022-12-20T15:14:50.122Z,1008.98
2022-12-20T15:15:54.400Z,1008.99
2022-12-20T15:16:58.585Z,1009.06
2022-12-20T15:18:02.840Z,1009.09
2022-12-20T15:19:07.112Z,1009.08
2022-12-20T15:20:11.225Z,1009.06
2022-12-20T15:21:15.438Z,1009.04
2022-12-20T15:22:19.703Z,1009.04
2022-12-20T15:23:23.952Z,1009.04
2022-12-20T15:24:28.173Z,1009.07
2022-12-20T15:25:35.378Z,1009.11
2022-12-20T15:26:36.684Z,1009.11
2022-12-20T15:27:40.926Z,1009.11
2022-12-20T15:28:45.151Z,1009.04
2022-12-20T15:29:52.298Z,1008.99
2022-12-20T15:30:55.747Z,1008.94
2022-12-20T15:31:59.835Z,1008.95
2022-12-20T15:33:03.954Z,1008.97
2022-12-20T15:34:08.144Z,1008.99
2022-12-20T15:35:12.476Z,1009.02
2022-12-20T15:36:16.654Z,1008.99
2022-12-20T15:37:20.876Z,1008.94
2022-12-20T15:38:47.510Z,1008.93
2022-12-20T15:39:29.370Z,1008.93
2022-12-20T15:40:33.610Z,1008.93
2022-12-20T15:41:37.853Z,1008.90
2022-12-20T15:42:42.071Z,1008.87
2022-12-20T15:43:46.319Z,1008.90
2022-12-20T15:44:50.439Z,1008.90
2022-12-20T15:45:54.601Z,1008.90
2022-12-20T15:46:58.998Z,1008.97
2022-12-20T15:48:03.080Z,1008.98
2022-12-20T15:49:07.323Z,1009.00
2022-12-20T15:50:11.566Z,1008.99
2022-12-20T15:51:15.848Z,1008.96
2022-12-20T15:52:20.072Z,1008.95
2022-12-20T15:53:24.324Z,1008.97
2022-12-20T15:54:28.617Z,1008.95
2022-12-20T15:55:39.350Z,1008.92
2022-12-20T15:56:37.022Z,1008.91
2022-12-20T15:57:41.307Z,1008.88
2022-12-20T15:58:45.549Z,1008.90
2022-12-20T16:00:05.215Z,1008.90
2022-12-20T16:00:54.014Z,1008.91
2022-12-20T16:01:58.366Z,1008.92
2022-12-20T16:03:02.791Z,1008.98
2022-12-20T16:04:06.775Z,1008.99
2022-12-20T16:05:11.022Z,1008.98
2022-12-20T16:06:15.155Z,1008.97
2022-12-20T16:07:19.504Z,1008.95
2022-12-20T16:08:23.686Z,1008.99
2022-12-20T16:09:27.836Z,1008.98
2022-12-20T16:10:33.017Z,1008.96
2022-12-20T16:11:36.904Z,1008.95
2022-12-20T16:12:40.997Z,1008.96
2022-12-20T16:13:51.381Z,1008.93
2022-12-20T16:14:54.226Z,1008.96
2022-12-20T16:15:58.502Z,1008.94
2022-12-20T16:17:02.676Z,1008.92
2022-12-20T16:18:07.013Z,1008.92
2022-12-20T16:19:11.225Z,1008.91
2022-12-20T16:20:15.483Z,1008.87
2022-12-20T16:21:19.728Z,1008.90
2022-12-20T16:22:24.215Z,1008.88
2022-12-20T16:23:28.210Z,1008.87
2022-12-20T16:24:32.378Z,1008.88
2022-12-20T16:25:36.717Z,1008.89
2022-12-20T16:26:40.975Z,1008.88
2022-12-20T16:27:45.221Z,1008.91
2022-12-20T16:28:49.448Z,1008.90
2022-12-20T16:29:53.714Z,1008.89
2022-12-20T16:30:57.953Z,1008.89
2022-12-20T16:32:02.253Z,1008.88
2022-12-20T16:33:06.392Z,1008.88
2022-12-20T22:35:02.731Z,1008.16
2022-12-20T22:36:05.882Z,1008.14
2022-12-20T22:37:10.041Z,1008.17
2022-12-20T22:38:14.144Z,1008.14
2022-12-20T22:39:18.410Z,1008.14
2022-12-20T22:40:22.636Z,1008.15
2022-12-20T22:41:29.949Z,1008.14
2022-12-20T22:42:33.180Z,1008.12
2022-12-20T22:43:37.308Z,1008.13
2022-12-20T22:44:41.613Z,1008.12
2022-12-20T22:45:45.804Z,1008.13
2022-12-20T22:46:50.043Z,1008.11
2022-12-20T22:47:54.151Z,1008.10
2022-12-20T22:48:58.414Z,1008.09
2022-12-20T22:50:02.606Z,1008.09
2022-12-20T22:51:06.887Z,1008.07
2022-12-20T22:52:11.095Z,1008.06
2022-12-20T22:53:15.240Z,1008.02
2022-12-20T22:54:19.422Z,1008.03
2022-12-20T22:55:23.717Z,1007.99
2022-12-20T22:56:27.946Z,1008.01
2022-12-20T22:57:32.083Z,1007.98
2022-12-20T22:58:36.352Z,1007.99
2022-12-20T22:59:40.522Z,1008.00
2022-12-20T23:00:44.792Z,1008.01
2022-12-20T23:01:49.147Z,1007.98
2022-12-20T23:02:53.328Z,1007.99
2022-12-20T23:03:57.462Z,1007.99
2022-12-20T23:05:04.638Z,1007.99
2022-12-20T23:06:07.929Z,1008.01
2022-12-20T23:07:12.271Z,1008.03
2022-12-20T23:08:16.403Z,1008.03
2022-12-20T23:09:20.645Z,1008.04
2022-12-20T23:10:24.793Z,1008.03
2022-12-20T23:11:29.010Z,1008.06
2022-12-20T23:12:33.390Z,1008.07
2022-12-20T23:13:37.533Z,1008.06
2022-12-20T23:14:41.729Z,1008.09
2022-12-20T23:15:45.898Z,1008.07
2022-12-20T23:16:50.216Z,1008.07
2022-12-20T23:17:54.259Z,1008.05
2022-12-20T23:19:01.565Z,1008.05
2022-12-20T23:20:04.845Z,1008.06
2022-12-20T23:21:08.951Z,1008.04
2022-12-20T23:22:13.256Z,1008.05
2022-12-20T23:23:17.502Z,1008.04
2022-12-20T23:24:21.719Z,1008.05
2022-12-20T23:25:26.005Z,1008.03
2022-12-20T23:26:30.289Z,1008.05
2022-12-20T23:27:34.404Z,1008.04
2022-12-20T23:28:38.701Z,1008.03
2022-12-20T23:29:42.924Z,1007.99
2022-12-20T23:30:47.203Z,1008.00
2022-12-20T23:31:51.584Z,1007.99
2022-12-20T23:32:55.650Z,1007.96
2022-12-20T23:33:59.814Z,1007.92
2022-12-20T23:35:10.060Z,1007.88
2022-12-20T23:36:08.206Z,1007.88
2022-12-20T23:37:12.520Z,1007.89
2022-12-20T23:38:16.653Z,1007.88
2022-12-20T23:39:20.936Z,1007.87
2022-12-20T23:40:25.131Z,1007.87
2022-12-20T23:41:29.383Z,1007.86
2022-12-20T23:42:33.593Z,1007.85
2022-12-20T23:43:37.733Z,1007.87
2022-12-20T23:44:42.052Z,1007.86
2022-12-20T23:45:46.296Z,1007.85
2022-12-20T23:46:50.499Z,1007.89
2022-12-20T23:47:54.546Z,1007.89
2022-12-20T23:49:01.851Z,1007.90
2022-12-20T23:50:05.064Z,1007.92
2022-12-20T23:51:09.269Z,1007.91
2022-12-20T23:52:13.510Z,1007.93
2022-12-20T23:53:17.609Z,1007.93
2022-12-20T23:54:21.925Z,1007.93
2022-12-20T23:55:26.169Z,1007.92
2022-12-20T23:56:30.351Z,1007.93
2022-12-20T23:57:34.586Z,1007.93
2022-12-20T23:58:38.841Z,1007.91
2022-12-20T23:59:43.100Z,1007.89
